KDLN

Details ICAO KDLN
Name Dillon
Region United States
Timezone America/Denver (UTC-6.0)
Plans Departing 4
Arriving 7
Stats Elevation 5,241 ft / 1,597 m (AMSL)
Location 45.254607° -112.552629°
Runways 2
Magnetic Variation 12.356° E
Sunrise 2018-05-23 11:53:40 UTC / 2018-05-23 05:53:40 Local
Sunset 2018-05-24 03:03:10 UTC / 2018-05-23 21:03:10 Local
Advertisement - Login to hide

Runways

ID Width Length Bearing (true) Bearing (mag) Surface Threshold Offset Overrun Length
03 60 ft / 18 m 3,593 ft / 1,095 m 50.03° 37.67° Asphalt 0 ft / 0 m 0 ft / 0 m
16 75 ft / 23 m 6,504 ft / 1,983 m 178.60° 166.24° Asphalt 0 ft / 0 m 0 ft / 0 m
21 60 ft / 18 m 3,593 ft / 1,095 m 230.04° 217.68° Asphalt 0 ft / 0 m 0 ft / 0 m
34 75 ft / 23 m 6,504 ft / 1,983 m 358.60° 346.24° Asphalt 0 ft / 0 m 0 ft / 0 m

Map

Weather


0- 5 10 15 20 25 30 35+ Temperature / ° C

Clouds and Precipitation
Forecast for 2018-05-23 12:00 UTC. Updated 4 hours ago

Ground ~20,000 ft ~40,000 ft Winds

METAR

KDLN 231453Z AUTO 00000KT 10SM OVC025 09/08 A2995 RMK AO2 SLP115 T00940078 58004

TAF

Not found

Frequencies

Recorded 135.22 MHz ASOS
Unicom 122.80 MHz CTAF/UNICOM
Unicom 122.80 MHz CTAF/UNICOM
Warning: Do not use this data for real-world aviation or navigation. No guarantee of current accuracy is given.